Terminal Aerodrome Forecast
Issued by NWS

Home | Current Version | Previous Version | Text Only | Print | Product List | Glossary On
Versions: 1 2 3 4 5 6 7 8 9 10 11 12 13 14 15 16 17 18 19 20 21
000
FTUS44 KLZK 221210 AAA
TAFHOT
TAF AMD
KHOT 221210Z 2212/2312 23005KT 6SM BR VCTS SCT025CB OVC060
      TEMPO 2212/2216 4SM -TSRA BR BKN005 BKN025CB
     FM221600 25008KT P6SM -RA VCTS BKN025CB OVC060
     FM222100 32012G20KT P6SM VCSH SCT035 BKN060
     FM230300 32009KT P6SM SCT060=

USA.gov is the U.S. government's official web portal to all federal, state and local government web resources and services.